Tropical Cyclones
[Index]
Main Index Home Page Stock Weather Photos Extreme Storms Discussion Storm News and Storm Chasing Reports Tropical Cyclones / Hurricanes / Typhoons Weather Data and Links Wild Fires / Bushfires Weather Observation Techniques Weather Picture Catalogue Tornado Pictures and Reports Stock Video Footage and DVDs for sale
Season 1951-1952 Tropical Cyclone 195203 Track Map
Season 1951-1952 Summaries: [BoM-AU] [JTWC-AU] [JTWC-SIO] [JTWC-SPAC] [JTWC-SH]
<<- Previous TC | JTWC 1951-1952 Season | Next TC ->>

click for intensity scale information  Lat/long Grid: Show Hide

 Date Labels: Show Hide

Joint Typhoon Warning Centre Cyclone Data

Name: 195203
Number: 158 / 5203

19 Dec 1951 00:00 UTC to 03 Jan 1952 00:00 UTC

    date/time    lat    long     hPa   cat  kts
1951-12-19 00    8.8   173.0                              
1951-12-19 06    8.7   172.5                              
1951-12-19 12    8.7   172.1                              
1951-12-19 18    8.7   171.7                              
1951-12-20 00    8.7   171.3                              
1951-12-20 06    8.7   171.1                              
1951-12-20 12    8.7   170.9                              
1951-12-20 18    8.9   170.6                              
1951-12-21 00    9.1   170.3                              
1951-12-21 06    9.3   169.9                              
1951-12-21 12    9.5   169.6                              
1951-12-21 18    9.8   169.4                              
1951-12-22 00   10.2   169.3                              
1951-12-22 06   10.8   169.2                              
1951-12-22 12   11.5   169.3                              
1951-12-22 18   12.0   169.6                              
1951-12-23 00   12.5   169.9                              
1951-12-23 06   13.5   170.1                              
1951-12-23 12   14.5   170.3                              
1951-12-23 18   15.2   170.4                              
1951-12-24 00   15.7   170.1                              
1951-12-24 06   16.1   169.6                              
1951-12-24 12   16.3   169.0                              
1951-12-24 18   16.4   168.4                              
1951-12-25 00   16.4   167.8                              
1951-12-25 06   16.3   167.1                              
1951-12-25 12   16.2   166.3                              
1951-12-25 18   15.9   165.8                              
1951-12-26 00   15.5   165.3                              
1951-12-26 06   15.3   164.6                              
1951-12-26 12   15.3   163.8                              
1951-12-26 18   15.3   163.0                              
1951-12-27 00   15.6   162.2                              
1951-12-27 06   16.1   161.6                              
1951-12-27 12   16.7   161.1                              
1951-12-27 18   17.3   160.7                              
1951-12-28 00   18.0   160.6                              
1951-12-28 06   18.7   160.7                              
1951-12-28 12   19.4   160.8                              
1951-12-28 18   19.9   160.9                              
1951-12-29 00   20.3   161.1                              
1951-12-29 06   20.9   161.4                              
1951-12-29 12   21.5   161.8                              
1951-12-29 18   21.9   162.2                              
1951-12-30 00   22.3   162.6                              
1951-12-30 06   22.7   163.2                              
1951-12-30 12   23.2   163.8                              
1951-12-30 18   23.7   164.4                              
1951-12-31 00   24.3   164.9                              
1951-12-31 06   24.8   165.5                              
1951-12-31 12   25.2   166.1                              
1951-12-31 18   25.6   166.9                              
1952-01-01 00   26.0   168.0                              
1952-01-01 06   26.6   169.2                              
1952-01-01 12   27.3   170.4                              
1952-01-01 18   27.8   171.7                              
1952-01-02 00   28.4   173.0                              
1952-01-02 06   28.9   174.6                              
1952-01-02 12   29.5   176.2                              
1952-01-02 18   30.0   177.6                              
1952-01-03 00   30.3   179.0                              
Winds are 1-min average.

Tropical cyclone tracks developed by Michael Bath using data from the Joint Typhoon Warning Centre Best Tracks and Google Maps.


[Australian Severe Weather index] [Copyright Notice] [Email Contacts] [Search This Site] [Privacy Policy]
Document: tropical_cyclone_195203.htm Updated: 18 September 2016